createdAt,value
2022-08-20T00:01:27.095Z,14.59
2022-08-20T00:03:36.283Z,14.54
2022-08-20T00:05:42.797Z,14.58
2022-08-20T00:07:45.443Z,14.54
2022-08-20T00:09:48.142Z,14.55
2022-08-20T00:11:50.759Z,14.56
2022-08-20T00:13:57.162Z,14.57
2022-08-20T00:16:00.194Z,14.57
2022-08-20T00:18:03.903Z,14.58
2022-08-20T00:20:10.073Z,14.53
2022-08-20T00:22:13.758Z,14.50
2022-08-20T00:24:16.858Z,14.49
2022-08-20T00:26:20.770Z,14.46
2022-08-20T00:28:23.405Z,14.44
2022-08-20T00:30:27.231Z,14.43
2022-08-20T00:32:29.850Z,14.38
2022-08-20T00:34:32.658Z,14.35
2022-08-20T00:36:35.325Z,14.37
2022-08-20T00:38:40.162Z,14.35
2022-08-20T00:40:52.565Z,14.35
2022-08-20T00:42:59.503Z,14.33
2022-08-20T00:45:02.279Z,14.33
2022-08-20T00:47:06.405Z,14.33
2022-08-20T00:49:15.223Z,14.31
2022-08-20T00:51:17.919Z,14.34
2022-08-20T00:53:23.831Z,14.32
2022-08-20T00:55:31.456Z,14.30
2022-08-20T00:57:43.808Z,14.28
2022-08-20T01:00:09.809Z,14.22
2022-08-20T01:02:16.371Z,14.27
2022-08-20T01:04:19.459Z,14.27
2022-08-20T01:06:22.763Z,14.26
2022-08-20T01:08:26.954Z,14.24
2022-08-20T01:10:35.222Z,14.23
2022-08-20T01:12:41.095Z,14.22
2022-08-20T01:14:46.388Z,14.23
2022-08-20T01:16:53.343Z,14.27
2022-08-20T01:18:57.862Z,14.30
2022-08-20T01:21:04.312Z,14.33
2022-08-20T01:23:27.848Z,14.32
2022-08-20T01:25:41.760Z,14.27
2022-08-20T01:27:46.363Z,14.31
2022-08-20T01:29:54.102Z,14.30
2022-08-20T01:32:01.574Z,14.29
2022-08-20T01:34:08.377Z,14.30
2022-08-20T01:36:12.849Z,14.25
2022-08-20T01:38:15.455Z,14.26
2022-08-20T01:40:27.946Z,14.26
2022-08-20T01:42:58.992Z,14.27
2022-08-20T01:45:04.376Z,14.27
2022-08-20T01:47:17.920Z,14.28
2022-08-20T01:49:25.921Z,14.31
2022-08-20T01:51:30.913Z,14.32
2022-08-20T01:53:41.723Z,14.31
2022-08-20T01:55:44.611Z,14.34
2022-08-20T01:57:48.594Z,14.35
2022-08-20T01:59:51.528Z,14.38
2022-08-20T02:01:54.896Z,14.40
2022-08-20T02:03:57.682Z,14.41
2022-08-20T02:06:01.496Z,14.45
2022-08-20T02:08:05.636Z,14.47
2022-08-20T02:10:11.938Z,14.47
2022-08-20T02:12:14.881Z,14.52
2022-08-20T02:14:17.621Z,14.50
2022-08-20T02:16:29.345Z,14.56
2022-08-20T02:18:32.094Z,14.55
2022-08-20T02:20:34.928Z,14.50
2022-08-20T02:22:55.127Z,14.53
2022-08-20T02:24:57.963Z,14.51
2022-08-20T02:27:00.708Z,14.53
2022-08-20T02:29:06.071Z,14.53
2022-08-20T02:31:08.825Z,14.49
2022-08-20T02:33:14.811Z,14.57
2022-08-20T02:35:19.407Z,14.59
2022-08-20T02:37:22.046Z,14.61
2022-08-20T02:39:25.961Z,14.65
2022-08-20T02:41:29.867Z,14.68
2022-08-20T02:43:32.512Z,14.72
2022-08-20T02:45:37.498Z,14.74
2022-08-20T02:47:40.238Z,14.80
2022-08-20T02:49:43.137Z,14.86
2022-08-20T02:51:46.501Z,14.90
2022-08-20T02:53:49.191Z,14.94
2022-08-20T02:55:52.060Z,14.99
2022-08-20T02:58:00.271Z,15.02
2022-08-20T03:00:15.164Z,14.95
2022-08-20T03:02:18.103Z,15.09
2022-08-20T03:04:20.820Z,15.17
2022-08-20T03:06:28.713Z,15.21
2022-08-20T03:08:31.495Z,15.27
2022-08-20T03:10:36.255Z,15.32
2022-08-20T03:12:39.135Z,15.36
2022-08-20T03:14:41.826Z,15.43
2022-08-20T03:16:44.473Z,15.50
2022-08-20T03:18:48.283Z,15.57
2022-08-20T03:20:54.787Z,15.65
2022-08-20T03:22:57.952Z,15.72
2022-08-20T03:25:00.524Z,15.77
2022-08-20T03:27:03.199Z,15.83
2022-08-20T03:29:05.924Z,15.87
2022-08-20T03:31:09.006Z,15.99
2022-08-20T03:33:11.927Z,16.06
2022-08-20T03:35:16.707Z,16.08
2022-08-20T03:37:19.526Z,16.12
2022-08-20T03:39:22.210Z,16.14
2022-08-20T03:41:25.625Z,16.21
2022-08-20T03:43:28.767Z,16.29
2022-08-20T03:45:32.675Z,16.35
2022-08-20T03:47:36.095Z,16.39
2022-08-20T03:49:38.760Z,16.45
2022-08-20T03:51:57.758Z,16.52
2022-08-20T03:54:00.984Z,16.57
2022-08-20T03:56:06.374Z,16.63
2022-08-20T03:58:10.416Z,16.67
2022-08-20T04:00:15.680Z,16.68
2022-08-20T04:02:18.731Z,16.70
2022-08-20T04:04:22.274Z,16.74
2022-08-20T04:06:25.818Z,16.79
2022-08-20T04:08:29.979Z,16.86
2022-08-20T04:10:32.790Z,16.92
2022-08-20T04:12:37.601Z,16.97
2022-08-20T04:14:40.526Z,17.05
2022-08-20T04:16:43.996Z,17.11
2022-08-20T04:19:01.601Z,17.16
2022-08-20T04:21:06.106Z,17.25
2022-08-20T04:23:09.515Z,17.30
2022-08-20T04:25:15.977Z,17.34
2022-08-20T04:27:20.465Z,17.36
2022-08-20T04:29:26.100Z,17.42
2022-08-20T04:31:35.072Z,17.52
2022-08-20T04:33:37.726Z,17.58
2022-08-20T04:35:40.388Z,17.66
2022-08-20T04:37:43.311Z,17.70
2022-08-20T04:39:45.983Z,17.74
2022-08-20T04:41:48.986Z,17.81
2022-08-20T04:43:56.724Z,17.88
2022-08-20T04:46:02.363Z,17.95
2022-08-20T04:48:07.525Z,17.96
2022-08-20T04:50:13.812Z,18.04
2022-08-20T04:52:16.457Z,18.13
2022-08-20T04:54:19.186Z,18.17
2022-08-20T04:56:28.449Z,18.22
2022-08-20T04:58:34.758Z,18.25
2022-08-20T05:00:37.959Z,18.29
2022-08-20T05:02:40.940Z,18.34
2022-08-20T05:04:43.579Z,18.44
2022-08-20T05:06:46.201Z,18.50
2022-08-20T05:08:48.915Z,18.52
2022-08-20T05:10:56.036Z,18.63
2022-08-20T05:13:16.667Z,18.69
2022-08-20T05:15:20.100Z,18.78
2022-08-20T05:17:24.005Z,18.89
2022-08-20T05:19:29.150Z,18.95
2022-08-20T05:21:31.800Z,19.03
2022-08-20T05:23:36.869Z,19.14
2022-08-20T05:25:42.112Z,19.22
2022-08-20T05:27:47.723Z,19.34
2022-08-20T05:29:52.228Z,19.46
2022-08-20T05:31:56.822Z,19.54
2022-08-20T05:33:59.579Z,19.56
2022-08-20T05:36:02.686Z,19.64
2022-08-20T05:38:11.912Z,19.74
2022-08-20T05:40:15.008Z,19.85
2022-08-20T05:42:17.876Z,19.92
2022-08-20T05:44:20.940Z,19.97
2022-08-20T05:46:23.534Z,20.02
2022-08-20T05:48:26.284Z,20.11
2022-08-20T05:50:28.905Z,20.14
2022-08-20T05:52:31.555Z,20.17
2022-08-20T05:54:34.311Z,20.22
2022-08-20T05:56:37.432Z,20.25
2022-08-20T05:58:40.171Z,20.27
2022-08-20T06:00:42.912Z,20.33
2022-08-20T06:03:04.168Z,20.38
2022-08-20T06:05:07.029Z,20.44
2022-08-20T06:07:12.225Z,20.52
2022-08-20T06:09:31.017Z,20.56
2022-08-20T06:11:37.171Z,20.61
2022-08-20T06:13:40.177Z,20.67
2022-08-20T06:15:42.902Z,20.76
2022-08-20T06:17:45.993Z,20.81
2022-08-20T06:20:05.791Z,20.86
2022-08-20T06:22:17.900Z,20.93
2022-08-20T06:24:27.131Z,20.95
2022-08-20T06:26:31.113Z,20.97
2022-08-20T06:28:33.908Z,20.98
2022-08-20T06:30:37.314Z,21.03
2022-08-20T06:32:40.325Z,21.09
2022-08-20T06:34:49.957Z,21.17
2022-08-20T06:36:54.927Z,21.27
2022-08-20T06:38:58.545Z,21.37
2022-08-20T06:41:01.265Z,21.43
2022-08-20T06:43:04.250Z,21.49
2022-08-20T06:45:07.332Z,21.55
2022-08-20T06:47:09.950Z,21.61
2022-08-20T06:49:13.216Z,21.64
2022-08-20T06:51:15.949Z,21.72
2022-08-20T06:53:21.014Z,21.76
2022-08-20T06:55:24.173Z,21.82
2022-08-20T06:57:27.566Z,21.84
2022-08-20T06:59:30.270Z,21.92
2022-08-20T07:01:33.357Z,22.00
2022-08-20T07:03:38.472Z,22.08
2022-08-20T07:05:44.038Z,22.13
2022-08-20T07:07:51.314Z,22.19
2022-08-20T07:10:09.291Z,22.18
2022-08-20T07:12:14.368Z,22.16
2022-08-20T07:14:18.549Z,22.11
2022-08-20T07:16:21.127Z,22.17
2022-08-20T07:18:28.157Z,22.17
2022-08-20T07:20:34.722Z,22.19
2022-08-20T07:22:37.584Z,22.25
2022-08-20T07:24:42.010Z,22.34
2022-08-20T07:26:46.193Z,22.43
2022-08-20T07:28:49.286Z,22.51
2022-08-20T07:31:13.844Z,22.61
2022-08-20T07:33:18.944Z,22.62
2022-08-20T07:35:27.369Z,22.66
2022-08-20T07:37:30.226Z,22.75
2022-08-20T07:39:32.793Z,22.75
2022-08-20T07:41:35.845Z,22.78
2022-08-20T07:43:39.658Z,22.80
2022-08-20T07:45:47.998Z,22.81
2022-08-20T07:47:56.151Z,22.86
2022-08-20T07:49:59.004Z,22.90
2022-08-20T07:52:01.656Z,22.88
2022-08-20T07:54:06.775Z,22.83
2022-08-20T07:56:13.214Z,23.00
2022-08-20T07:58:20.022Z,23.01
2022-08-20T08:00:24.175Z,23.05
2022-08-20T08:02:28.419Z,23.05
2022-08-20T08:04:32.049Z,23.08
2022-08-20T08:06:36.868Z,23.12
2022-08-20T08:08:41.203Z,23.21
2022-08-20T08:10:46.357Z,23.28
2022-08-20T08:12:53.008Z,23.32
2022-08-20T08:14:56.584Z,23.31
2022-08-20T08:17:03.593Z,23.30
2022-08-20T08:19:09.841Z,23.35
2022-08-20T08:21:16.639Z,23.40
2022-08-20T08:23:24.869Z,23.47
2022-08-20T08:25:35.248Z,23.52
2022-08-20T08:27:38.324Z,23.56
2022-08-20T08:29:41.102Z,23.67
2022-08-20T08:31:43.811Z,23.74
2022-08-20T08:33:46.668Z,23.87
2022-08-20T08:35:49.257Z,23.89
2022-08-20T08:37:51.974Z,23.92
2022-08-20T08:39:54.709Z,23.92
2022-08-20T08:41:59.149Z,23.96
2022-08-20T08:44:06.172Z,24.02
2022-08-20T08:46:11.944Z,24.10
2022-08-20T08:48:18.772Z,24.21
2022-08-20T08:50:52.879Z,24.26
2022-08-20T08:52:59.630Z,24.28
2022-08-20T08:55:05.772Z,24.32
2022-08-20T08:57:10.923Z,24.34
2022-08-20T08:59:13.682Z,24.39
2022-08-20T09:01:54.416Z,24.45
2022-08-20T09:03:49.134Z,24.51
2022-08-20T09:05:58.739Z,24.50
2022-08-20T09:08:03.617Z,24.62
2022-08-20T09:10:07.358Z,24.73
2022-08-20T09:12:19.053Z,24.74
2022-08-20T09:14:25.112Z,24.79
2022-08-20T09:16:33.130Z,24.77
2022-08-20T09:18:52.282Z,24.76
2022-08-20T09:20:55.449Z,24.80
2022-08-20T09:22:58.258Z,24.89
2022-08-20T09:25:02.862Z,24.89
2022-08-20T09:27:06.665Z,24.87
2022-08-20T09:29:10.165Z,24.93
2022-08-20T09:31:12.798Z,25.01
2022-08-20T09:33:17.653Z,25.11
2022-08-20T09:35:20.272Z,25.19
2022-08-20T09:37:24.796Z,25.26
2022-08-20T09:39:27.359Z,25.36
2022-08-20T09:41:33.665Z,25.44
2022-08-20T09:43:38.440Z,25.47
2022-08-20T09:45:41.130Z,25.53
2022-08-20T09:47:54.688Z,25.60
2022-08-20T09:49:59.435Z,25.65
2022-08-20T09:52:02.957Z,25.68
2022-08-20T09:54:05.950Z,25.72
2022-08-20T09:56:09.422Z,25.78
2022-08-20T09:58:23.805Z,25.73
2022-08-20T10:00:26.461Z,25.69
2022-08-20T10:02:29.081Z,25.73
2022-08-20T10:04:31.694Z,25.76
2022-08-20T10:06:39.941Z,25.66
2022-08-20T10:08:43.578Z,25.76
2022-08-20T10:10:46.268Z,25.85
2022-08-20T10:12:52.801Z,25.89
2022-08-20T10:14:57.597Z,25.84
2022-08-20T10:17:01.818Z,25.89
2022-08-20T10:19:05.830Z,25.91
2022-08-20T10:21:12.420Z,25.97
2022-08-20T10:23:15.060Z,26.03
2022-08-20T10:25:18.059Z,26.11
2022-08-20T10:27:20.778Z,26.14
2022-08-20T10:29:23.547Z,26.21
2022-08-20T10:31:26.177Z,26.27
2022-08-20T10:33:28.722Z,26.35
2022-08-20T10:35:31.286Z,26.33
2022-08-20T10:37:34.945Z,26.28
2022-08-20T10:39:37.606Z,26.36
2022-08-20T10:41:40.665Z,26.45
2022-08-20T10:43:43.322Z,26.55
2022-08-20T10:45:45.936Z,26.68
2022-08-20T10:47:48.781Z,26.78
2022-08-20T10:49:53.531Z,26.91
2022-08-20T10:51:56.750Z,26.96
2022-08-20T10:54:00.242Z,27.10
2022-08-20T10:56:03.114Z,27.22
2022-08-20T10:58:07.224Z,27.28
2022-08-20T11:00:17.822Z,27.33
2022-08-20T11:02:21.281Z,27.48
2022-08-20T11:04:24.128Z,27.61
2022-08-20T11:06:26.856Z,27.59
2022-08-20T11:08:34.460Z,27.65
2022-08-20T11:10:39.392Z,27.65
2022-08-20T11:12:44.831Z,27.79
2022-08-20T11:14:50.535Z,27.97
2022-08-20T11:16:53.375Z,28.14
2022-08-20T11:18:56.019Z,28.25
2022-08-20T11:20:58.904Z,28.33
2022-08-20T11:23:01.572Z,28.37
2022-08-20T11:25:06.302Z,28.48
2022-08-20T11:27:09.707Z,28.50
2022-08-20T11:29:12.432Z,28.57
2022-08-20T11:31:15.182Z,28.46
2022-08-20T11:33:17.740Z,28.49
2022-08-20T11:35:42.296Z,28.59
2022-08-20T11:37:47.992Z,28.74
2022-08-20T11:39:51.099Z,28.80
2022-08-20T11:41:55.432Z,28.91
2022-08-20T11:44:20.221Z,29.01
2022-08-20T11:46:23.435Z,29.05
2022-08-20T11:48:29.257Z,29.21
2022-08-20T11:50:32.080Z,29.32
2022-08-20T11:52:35.341Z,29.48
2022-08-20T11:54:40.723Z,29.68
2022-08-20T11:56:45.979Z,29.86
2022-08-20T11:58:48.777Z,30.11
2022-08-20T12:00:51.541Z,30.22
2022-08-20T12:02:54.272Z,30.13
2022-08-20T12:04:58.474Z,30.12
2022-08-20T12:07:10.455Z,30.20
2022-08-20T12:09:13.374Z,30.27
2022-08-20T12:11:15.970Z,30.50
2022-08-20T12:13:18.576Z,30.80
2022-08-20T12:15:23.352Z,30.97
2022-08-20T12:17:29.826Z,30.86
2022-08-20T12:19:32.402Z,30.88
2022-08-20T12:21:35.103Z,30.84
2022-08-20T12:23:46.379Z,30.85
2022-08-20T12:25:50.384Z,30.88
2022-08-20T12:27:53.147Z,31.09
2022-08-20T12:29:58.103Z,31.33
2022-08-20T12:32:00.709Z,31.57
2022-08-20T12:34:03.344Z,31.58
2022-08-20T12:36:06.247Z,31.52
2022-08-20T12:38:08.962Z,31.79
2022-08-20T12:40:24.420Z,31.93
2022-08-20T12:42:35.566Z,31.98
2022-08-20T12:44:39.070Z,32.15
2022-08-20T12:46:41.629Z,32.33
2022-08-20T12:48:44.253Z,32.37
2022-08-20T12:50:47.110Z,32.47
2022-08-20T12:52:50.610Z,32.57
2022-08-20T12:54:54.568Z,32.82
2022-08-20T12:56:57.709Z,32.84
2022-08-20T12:59:00.293Z,33.08
2022-08-20T13:01:02.955Z,33.29
2022-08-20T13:03:07.162Z,33.27
2022-08-20T13:05:11.541Z,33.31
2022-08-20T13:07:14.783Z,33.32
2022-08-20T13:09:18.702Z,33.53
2022-08-20T13:11:21.351Z,33.79
2022-08-20T13:13:23.883Z,33.99
2022-08-20T13:15:26.545Z,34.03
2022-08-20T13:17:38.710Z,34.05
2022-08-20T13:19:42.073Z,34.41
2022-08-20T13:21:44.664Z,34.64
2022-08-20T13:23:57.664Z,34.69
2022-08-20T13:26:00.254Z,34.51
2022-08-20T13:28:04.878Z,34.58
2022-08-20T13:30:09.273Z,34.50
2022-08-20T13:32:11.876Z,34.34
2022-08-20T13:34:14.505Z,34.19
2022-08-20T13:36:17.132Z,34.25
2022-08-20T13:38:20.043Z,34.14
2022-08-20T13:40:22.775Z,34.36
2022-08-20T13:42:27.042Z,34.74
2022-08-20T13:44:33.212Z,34.99
2022-08-20T13:46:36.144Z,34.84
2022-08-20T13:48:38.758Z,34.87
2022-08-20T13:50:41.478Z,34.97
2022-08-20T13:52:46.010Z,35.15
2022-08-20T13:54:48.778Z,35.16
2022-08-20T13:56:51.375Z,35.46
2022-08-20T13:58:54.040Z,35.53
2022-08-20T14:00:56.921Z,35.48
2022-08-20T14:03:04.322Z,35.48
2022-08-20T14:05:07.717Z,35.69
2022-08-20T14:07:32.304Z,35.87
2022-08-20T14:09:38.452Z,36.01
2022-08-20T14:11:41.035Z,36.13
2022-08-20T14:13:43.769Z,36.09
2022-08-20T14:15:46.501Z,36.14
2022-08-20T14:17:52.467Z,36.23
2022-08-20T14:20:01.164Z,36.38
2022-08-20T14:22:06.421Z,36.42
2022-08-20T14:24:09.117Z,36.48
2022-08-20T14:26:11.785Z,36.49
2022-08-20T14:28:18.461Z,36.44
2022-08-20T14:30:28.353Z,36.40
2022-08-20T14:32:31.140Z,36.58
2022-08-20T14:34:34.974Z,36.65
2022-08-20T14:36:37.638Z,36.57
2022-08-20T14:38:45.187Z,36.55
2022-08-20T14:40:48.603Z,36.58
2022-08-20T14:42:51.967Z,36.44
2022-08-20T14:44:56.242Z,36.35
2022-08-20T14:47:11.182Z,36.36
2022-08-20T14:49:13.838Z,36.34
2022-08-20T14:51:16.985Z,36.32
2022-08-20T14:53:19.786Z,36.17
2022-08-20T14:55:25.477Z,36.13
2022-08-20T14:57:28.127Z,36.04
2022-08-20T14:59:30.904Z,35.91
2022-08-20T15:01:33.604Z,35.83
2022-08-20T15:03:36.238Z,35.72
2022-08-20T15:05:40.761Z,35.50
2022-08-20T15:07:46.436Z,35.04
2022-08-20T15:09:50.239Z,34.42
2022-08-20T15:11:52.801Z,33.84
2022-08-20T15:13:55.362Z,33.39
2022-08-20T15:15:58.057Z,32.97
2022-08-20T15:18:00.802Z,32.68
2022-08-20T15:20:19.877Z,32.36
2022-08-20T15:22:23.981Z,32.01
2022-08-20T15:24:26.547Z,31.69
2022-08-20T15:26:29.786Z,31.46
2022-08-20T15:28:32.426Z,31.24
2022-08-20T15:30:36.538Z,31.07
2022-08-20T15:32:39.407Z,30.89
2022-08-20T15:34:42.525Z,30.75
2022-08-20T15:36:45.383Z,30.54
2022-08-20T15:38:48.146Z,30.31
2022-08-20T15:40:50.741Z,30.16
2022-08-20T15:42:53.506Z,30.00
2022-08-20T15:44:56.194Z,29.91
2022-08-20T15:47:16.861Z,29.77
2022-08-20T15:49:19.522Z,29.57
2022-08-20T15:51:38.280Z,29.37
2022-08-20T15:53:47.030Z,29.23
2022-08-20T15:56:03.115Z,29.13
2022-08-20T15:58:14.233Z,28.96
2022-08-20T16:00:23.914Z,28.85
2022-08-20T16:02:41.655Z,28.75
2022-08-20T16:04:55.986Z,28.59
2022-08-20T16:07:06.165Z,28.48
2022-08-20T16:09:54.836Z,28.39
2022-08-20T16:12:08.162Z,28.21
2022-08-20T16:14:24.776Z,28.11
2022-08-20T16:16:30.040Z,27.99
2022-08-20T16:18:38.198Z,27.88
2022-08-20T16:20:52.841Z,27.79
2022-08-20T16:22:56.311Z,27.68
2022-08-20T16:24:59.741Z,27.58
2022-08-20T16:27:41.016Z,27.43
2022-08-20T16:30:00.414Z,27.26
2022-08-20T16:32:09.221Z,27.18
2022-08-20T16:34:33.981Z,27.13
2022-08-20T16:36:48.802Z,27.03
2022-08-20T16:39:12.043Z,26.88
2022-08-20T16:41:40.104Z,26.78
2022-08-20T16:43:56.621Z,26.71
2022-08-20T16:46:03.838Z,26.65
2022-08-20T16:48:08.602Z,26.58
2022-08-20T16:50:25.900Z,26.52
2022-08-20T16:52:28.522Z,26.42
2022-08-20T16:54:31.523Z,26.35
2022-08-20T16:56:40.723Z,26.25
2022-08-20T16:58:45.450Z,26.13
2022-08-20T17:00:48.195Z,26.04
2022-08-20T17:03:03.059Z,25.96
2022-08-20T17:05:06.768Z,25.90
2022-08-20T17:07:11.722Z,25.85
2022-08-20T17:09:31.950Z,25.73
2022-08-20T17:11:36.643Z,25.64
2022-08-20T17:13:43.515Z,25.53
2022-08-20T17:16:16.388Z,25.46
2022-08-20T17:18:29.819Z,25.36
2022-08-20T17:20:45.096Z,25.29
2022-08-20T17:22:55.196Z,25.19
2022-08-20T17:24:58.436Z,25.14
2022-08-20T17:27:10.097Z,25.01
2022-08-20T17:29:25.766Z,24.93
2022-08-20T17:31:38.807Z,24.85
2022-08-20T17:33:42.566Z,24.77
2022-08-20T17:35:54.650Z,24.80
2022-08-20T17:38:00.107Z,24.78
2022-08-20T17:40:33.965Z,24.80
2022-08-20T17:42:58.851Z,24.70
2022-08-20T17:45:21.344Z,24.69
2022-08-20T17:47:32.408Z,24.65
2022-08-20T17:50:02.372Z,24.63
2022-08-20T17:52:30.332Z,24.51
2022-08-20T17:54:39.456Z,24.45
2022-08-20T17:56:44.258Z,24.39
2022-08-20T18:00:00.212Z,24.36
2022-08-20T18:01:47.404Z,24.22
2022-08-20T18:03:52.280Z,24.19
2022-08-20T18:06:01.629Z,24.12
2022-08-20T18:08:20.367Z,24.09
2022-08-20T18:10:26.437Z,24.01
2022-08-20T18:12:41.749Z,23.94
2022-08-20T18:14:59.829Z,23.86
2022-08-20T18:17:43.817Z,23.83
2022-08-20T18:19:52.418Z,23.74
2022-08-20T18:22:20.258Z,23.68
2022-08-20T18:24:39.063Z,23.52
2022-08-20T18:26:54.250Z,23.56
2022-08-20T18:29:34.308Z,23.51
2022-08-20T18:31:55.550Z,23.40
2022-08-20T18:33:58.729Z,23.32
2022-08-20T18:36:34.605Z,23.27
2022-08-20T18:38:42.095Z,23.18
2022-08-20T18:40:44.787Z,23.12
2022-08-20T18:42:47.729Z,23.10
2022-08-20T18:44:52.769Z,23.06
2022-08-20T18:46:59.434Z,23.00
2022-08-20T18:49:06.209Z,22.97
2022-08-20T18:51:11.811Z,22.94
2022-08-20T18:53:34.435Z,22.90
2022-08-20T18:55:59.402Z,22.79
2022-08-20T18:58:07.076Z,22.74
2022-08-20T19:00:14.625Z,22.73
2022-08-20T19:02:25.176Z,22.68
2022-08-20T19:04:32.124Z,22.62
2022-08-20T19:06:53.289Z,22.59
2022-08-20T19:09:20.279Z,22.50
2022-08-20T19:12:05.037Z,22.50
2022-08-20T19:14:59.110Z,22.43
2022-08-20T19:17:16.862Z,22.33
2022-08-20T19:19:24.535Z,22.25
2022-08-20T19:21:35.751Z,22.21
2022-08-20T19:23:41.627Z,22.18
2022-08-20T19:26:03.483Z,22.21
2022-08-20T19:28:32.066Z,22.17
2022-08-20T19:30:39.767Z,22.10
2022-08-20T19:32:53.763Z,22.09
2022-08-20T19:35:06.606Z,22.04
2022-08-20T19:37:34.919Z,22.02
2022-08-20T19:39:43.381Z,21.94
2022-08-20T19:41:49.120Z,21.91
2022-08-20T19:43:54.289Z,21.88
2022-08-20T19:45:57.328Z,21.82
2022-08-20T19:48:18.508Z,21.79
2022-08-20T19:50:38.185Z,21.74
2022-08-20T19:53:02.845Z,21.71
2022-08-20T19:55:21.935Z,21.62
2022-08-20T19:57:26.254Z,21.60
2022-08-20T19:59:29.226Z,21.58
2022-08-20T20:01:33.786Z,21.52
2022-08-20T20:03:40.403Z,21.52
2022-08-20T20:06:17.028Z,21.49
2022-08-20T20:08:22.608Z,21.41
2022-08-20T20:10:35.266Z,21.38
2022-08-20T20:12:39.642Z,21.31
2022-08-20T20:14:44.388Z,21.24
2022-08-20T20:16:50.724Z,21.18
2022-08-20T20:19:15.730Z,21.10
2022-08-20T20:21:46.933Z,21.05
2022-08-20T20:24:01.885Z,20.96
2022-08-20T20:26:08.732Z,20.93
2022-08-20T20:28:19.884Z,20.83
2022-08-20T20:30:31.090Z,20.82
2022-08-20T20:32:34.189Z,20.78
2022-08-20T20:34:55.041Z,20.74
2022-08-20T20:37:11.537Z,20.64
2022-08-20T20:39:33.604Z,20.63
2022-08-20T20:41:37.823Z,20.62
2022-08-20T20:43:43.448Z,20.55
2022-08-20T20:45:56.295Z,20.53
2022-08-20T20:47:59.328Z,20.46
2022-08-20T20:50:06.472Z,20.45
2022-08-20T20:52:28.847Z,20.41
2022-08-20T20:54:44.367Z,20.38
2022-08-20T20:56:59.020Z,20.30
2022-08-20T20:59:06.077Z,20.28
2022-08-20T21:01:09.596Z,20.24
2022-08-20T21:03:12.732Z,20.23
2022-08-20T21:05:17.569Z,20.20
2022-08-20T21:07:23.166Z,20.15
2022-08-20T21:09:26.894Z,20.08
2022-08-20T21:11:30.538Z,20.06
2022-08-20T21:13:33.172Z,20.01
2022-08-20T21:15:38.149Z,19.99
2022-08-20T21:17:41.335Z,19.97
2022-08-20T21:19:45.377Z,19.93
2022-08-20T21:21:48.193Z,19.88
2022-08-20T21:23:50.803Z,19.82
2022-08-20T21:25:53.469Z,19.77
2022-08-20T21:27:56.648Z,19.78
2022-08-20T21:29:59.395Z,19.76
2022-08-20T21:32:02.027Z,19.72
2022-08-20T21:34:04.723Z,19.68
2022-08-20T21:36:07.670Z,19.65
2022-08-20T21:38:10.553Z,19.61
2022-08-20T21:40:21.568Z,19.59
2022-08-20T21:42:29.098Z,19.53
2022-08-20T21:44:33.671Z,19.51
2022-08-20T21:46:36.425Z,19.48
2022-08-20T21:48:39.248Z,19.45
2022-08-20T21:50:42.251Z,19.38
2022-08-20T21:52:51.741Z,19.37
2022-08-20T21:55:02.441Z,19.33
2022-08-20T21:57:18.099Z,19.30
2022-08-20T21:59:22.894Z,19.28
2022-08-20T22:01:25.674Z,19.27
2022-08-20T22:03:31.744Z,19.23
2022-08-20T22:05:34.919Z,19.22
2022-08-20T22:07:37.756Z,19.21
2022-08-20T22:09:40.465Z,19.21
2022-08-20T22:11:43.382Z,19.19
2022-08-20T22:13:46.415Z,19.16
2022-08-20T22:15:49.104Z,19.14
2022-08-20T22:17:52.010Z,19.10
2022-08-20T22:19:54.673Z,19.03
2022-08-20T22:21:57.539Z,19.05
2022-08-20T22:24:03.841Z,19.01
2022-08-20T22:26:08.007Z,18.98
2022-08-20T22:28:10.746Z,18.96
2022-08-20T22:30:13.694Z,18.93
2022-08-20T22:32:16.389Z,18.91
2022-08-20T22:34:21.609Z,18.90
2022-08-20T22:36:25.694Z,18.85
2022-08-20T22:38:28.670Z,18.86
2022-08-20T22:40:31.385Z,18.87
2022-08-20T22:42:34.100Z,18.86
2022-08-20T22:44:36.725Z,18.85
2022-08-20T22:46:47.057Z,18.85
2022-08-20T22:48:50.565Z,18.84
2022-08-20T22:50:53.870Z,18.74
2022-08-20T22:52:57.010Z,18.74
2022-08-20T22:54:59.760Z,18.74
2022-08-20T22:57:02.431Z,18.70
2022-08-20T22:59:06.823Z,18.65
2022-08-20T23:01:09.963Z,18.71
2022-08-20T23:03:12.929Z,18.59
2022-08-20T23:05:21.602Z,18.68
2022-08-20T23:07:24.392Z,18.66
2022-08-20T23:09:27.800Z,18.66
2022-08-20T23:11:32.882Z,18.67
2022-08-20T23:13:35.667Z,18.65
2022-08-20T23:15:41.507Z,18.61
2022-08-20T23:17:48.601Z,18.62
2022-08-20T23:19:51.760Z,18.57
2022-08-20T23:21:54.417Z,18.54
2022-08-20T23:23:57.136Z,18.54
2022-08-20T23:26:00.966Z,18.50
2022-08-20T23:28:04.419Z,18.49
2022-08-20T23:30:07.954Z,18.48
2022-08-20T23:32:10.760Z,18.46
2022-08-20T23:34:13.489Z,18.46
2022-08-20T23:36:19.723Z,18.47
2022-08-20T23:38:22.356Z,18.46
2022-08-20T23:40:28.408Z,18.44
2022-08-20T23:42:31.307Z,18.46
2022-08-20T23:44:34.008Z,18.44
2022-08-20T23:46:38.118Z,18.44
2022-08-20T23:48:40.809Z,18.44
2022-08-20T23:50:43.588Z,18.43
2022-08-20T23:52:46.421Z,18.40
2022-08-20T23:54:49.195Z,18.40
2022-08-20T23:56:51.944Z,18.37
2022-08-20T23:58:59.692Z,18.34
